Detall de PIREP

Printer-friendly versionPDF version

[2014/04/12 08:25:00]
Flight IATA:CT1004
Pilot Number:012
Company ICAO:CAT
Aircraft Type:B738/F
PAX:107
Departing Airport: LJLJ
Destination Airport: LIEA
Alternate Airport:LIEO
Online: VATSIM
Route:ILB UN737 GIKIN UL865 VALMA UL5 TINTO UQ710 GITRI UZ924 KOLUS UM603 MOROB
Flight Level:F350
No Slew and time accel
No pause
Crash detect
Detect pilot in Cockpit between each 30 and 45 minutes
08:25 Zero fuel Weight: 129835 Lbs, Fuel Weight: 21501 Lbs
08:25 VATSIM:LJLJ 120800Z VRB02KT 9999 FEW033 SCT110 BKN250 09/05 Q1017 NOSIG
08:25 VATSIM:LIEA 120750Z 15003KT 120V190 9999 -RA FEW045 12/12 Q1016
08:25 EASTER CHARTER
08:26 Parking Brakes off
08:33 Take-off
08:33 Take off Weight: 150531 Lbs
08:33 Wind: 356º @ 002 Knots Heading: 307º
08:33 POS N46º 13´ 40´´ E014º 26´ 59´´
08:33 Gear Up: 161 Knots
08:33 Flaps:3 at 161 Knots
08:34 Flaps:2 at 188 Knots
08:34 Flaps:1 at 193Knots
08:35 Flaps:0 at 195 Knots
08:48 Wind:317º@022 Knots Heading: 206º Ground Speed: 472 Knots Altitude 28871 ft
08:53 TOC
08:53 Fuel Weight: 16726 Lb
09:03 Wind:302º@013 Knots Heading: 227º Ground Speed: 458 Knots Altitude 35127 ft
09:18 Wind:293º@031 Knots Heading: 246º Ground Speed: 443 Knots Altitude 35114 ft
09:24 TOD
09:24 Fuel Weight: 13731 Lb
09:33 Wind:276º@010 Knots Heading: 264º Ground Speed: 366 Knots Altitude 15967 ft
09:41 Flaps:1 at 234 Knots
09:44 Flaps:2 at 182 Knots
09:44 Flaps:3 at 183 Knots
09:44 Gear Down: 183 Knots
09:44 Flaps:4 at 166 Knots
09:44 Flaps:5 at 157 Knots
09:44 Flaps:6 at 158 Knots
09:45 Flaps:7 at 157 Knots
09:45 Flaps:8 at 147 Knots
09:47 TouchDown:Rate -165 ft/min Speed: 131 Knots
09:47 VATSIM:LIEA 120920Z 36003KT 9999 FEW045 15/12 Q1017
09:47 Land
09:47 Wind:358º@001 Knots
09:47 Heading: 202º
09:47 Flight Duration: 01:14
09:47 Landing Weight: 142602 Lbs
09:47 POS N40º 37´ 52´´ E008º 17´ 24´´
09:49 Parking brakes on
09:49 Block to Block Duration: 01:23
09:49 Final Fuel: 12608 Lbls
09:49 Spent Fuel: 8893 Lbls
09:49 Flight Length: 483 NM
09:49 TOD Land Length: 117 NM

Exportar CSV

Powered by Drupal - Modified by Danger4k